createdAt,value
2018-08-06T00:00:06.876Z,10.82
2018-08-06T00:02:34.129Z,10.55
2018-08-06T00:05:01.405Z,10.40
2018-08-06T00:07:28.623Z,9.63
2018-08-06T00:09:55.886Z,11.20
2018-08-06T00:12:23.366Z,11.00
2018-08-06T00:14:50.591Z,11.23
2018-08-06T00:17:17.980Z,8.70
2018-08-06T00:19:45.219Z,8.75
2018-08-06T00:22:12.482Z,14.05
2018-08-06T00:24:39.683Z,14.05
2018-08-06T00:27:07.068Z,10.00
2018-08-06T00:29:34.378Z,8.85
2018-08-06T00:32:01.599Z,14.03
2018-08-06T00:34:28.929Z,11.68
2018-08-06T00:36:56.296Z,8.73
2018-08-06T00:39:23.560Z,12.80
2018-08-06T00:41:50.812Z,12.33
2018-08-06T00:44:18.155Z,8.78
2018-08-06T00:46:45.390Z,11.45
2018-08-06T00:49:12.659Z,10.43
2018-08-06T00:51:39.891Z,9.05
2018-08-06T00:54:07.153Z,13.70
2018-08-06T00:56:34.408Z,9.20
2018-08-06T00:59:01.663Z,12.30
2018-08-06T01:01:28.945Z,8.80
2018-08-06T01:03:56.193Z,14.83
2018-08-06T01:06:23.490Z,10.90
2018-08-06T01:08:50.778Z,11.30
2018-08-06T01:11:18.052Z,10.78
2018-08-06T01:13:45.388Z,13.60
2018-08-06T01:16:12.646Z,10.53
2018-08-06T01:18:39.893Z,12.43
2018-08-06T01:21:07.174Z,12.05
2018-08-06T01:23:34.479Z,11.93
2018-08-06T01:26:02.453Z,12.80
2018-08-06T01:28:29.747Z,15.50
2018-08-06T01:30:57.055Z,12.13
2018-08-06T01:33:24.286Z,12.15
2018-08-06T01:35:51.835Z,11.57
2018-08-06T01:38:19.141Z,15.78
2018-08-06T01:40:47.292Z,17.70
2018-08-06T01:43:14.515Z,12.50
2018-08-06T01:45:41.851Z,14.73
2018-08-06T01:48:09.064Z,15.23
2018-08-06T01:50:36.312Z,14.05
2018-08-06T01:53:03.570Z,16.23
2018-08-06T01:55:31.111Z,12.57
2018-08-06T01:57:58.351Z,15.83
2018-08-06T02:00:25.665Z,14.03
2018-08-06T02:02:52.968Z,12.78
2018-08-06T02:05:20.228Z,14.03
2018-08-06T02:07:47.583Z,13.87
2018-08-06T02:10:15.391Z,15.45
2018-08-06T02:12:43.526Z,15.50
2018-08-06T02:15:11.627Z,12.65
2018-08-06T02:17:39.291Z,18.52
2018-08-06T02:20:08.997Z,14.33
2018-08-06T02:22:36.868Z,14.70
2018-08-06T02:25:05.623Z,19.82
2018-08-06T02:27:32.964Z,18.50
2018-08-06T02:30:00.950Z,15.45
2018-08-06T02:32:28.307Z,16.10
2018-08-06T02:34:55.576Z,17.63
2018-08-06T02:37:22.961Z,16.62
2018-08-06T02:39:50.367Z,15.60
2018-08-06T02:42:17.628Z,15.63
2018-08-06T02:44:44.869Z,18.05
2018-08-06T02:47:12.297Z,16.80
2018-08-06T02:49:39.956Z,15.70
2018-08-06T02:52:07.315Z,19.82
2018-08-06T02:54:34.607Z,19.70
2018-08-06T02:57:02.264Z,21.42
2018-08-06T02:59:29.530Z,16.50
2018-08-06T03:01:56.977Z,21.68
2018-08-06T03:04:24.378Z,20.45
2018-08-06T03:06:51.635Z,20.67
2018-08-06T03:09:18.948Z,21.40
2018-08-06T03:11:46.186Z,19.85
2018-08-06T03:14:13.425Z,22.58
2018-08-06T03:16:40.704Z,20.67
2018-08-06T03:19:08.060Z,19.10
2018-08-06T03:21:35.357Z,22.05
2018-08-06T03:24:02.834Z,22.15
2018-08-06T03:26:30.239Z,21.10
2018-08-06T03:28:57.476Z,22.13
2018-08-06T03:31:24.872Z,23.37
2018-08-06T03:33:52.161Z,21.55
2018-08-06T03:36:19.499Z,21.68
2018-08-06T03:38:46.773Z,24.65
2018-08-06T03:41:14.104Z,21.90
2018-08-06T03:43:41.411Z,24.00
2018-08-06T03:46:08.652Z,28.67
2018-08-06T03:48:35.948Z,27.60
2018-08-06T03:51:03.241Z,30.25
2018-08-06T03:53:30.566Z,26.53
2018-08-06T03:55:57.816Z,27.85
2018-08-06T03:58:25.188Z,26.17
2018-08-06T04:00:52.629Z,24.77
2018-08-06T04:03:20.115Z,27.62
2018-08-06T04:05:47.408Z,24.07
2018-08-06T04:08:14.653Z,24.47
2018-08-06T04:10:41.917Z,21.90
2018-08-06T04:13:09.130Z,25.27
2018-08-06T04:15:36.347Z,24.43
2018-08-06T04:18:03.605Z,20.23
2018-08-06T04:20:30.831Z,20.82
2018-08-06T04:22:58.059Z,23.60
2018-08-06T04:25:25.361Z,25.95
2018-08-06T04:27:52.724Z,22.82
2018-08-06T04:30:20.027Z,22.87
2018-08-06T04:32:47.423Z,22.40
2018-08-06T04:35:15.478Z,23.37
2018-08-06T04:37:43.507Z,19.65
2018-08-06T04:40:11.654Z,21.53
2018-08-06T04:42:39.308Z,21.17
2018-08-06T04:45:07.449Z,19.55
2018-08-06T04:47:34.887Z,21.33
2018-08-06T04:50:02.409Z,18.85
2018-08-06T04:52:29.768Z,19.45
2018-08-06T04:54:56.947Z,18.95
2018-08-06T04:57:24.148Z,22.80
2018-08-06T04:59:51.405Z,20.57
2018-08-06T05:02:18.743Z,17.92
2018-08-06T05:04:46.008Z,18.80
2018-08-06T05:07:13.340Z,21.35
2018-08-06T05:09:42.722Z,22.60
2018-08-06T05:12:09.984Z,17.73
2018-08-06T05:14:39.020Z,17.30
2018-08-06T05:17:07.069Z,20.20
2018-08-06T05:19:35.053Z,17.67
2018-08-06T05:22:02.614Z,17.17
2018-08-06T05:24:29.984Z,17.73
2018-08-06T05:26:57.672Z,19.70
2018-08-06T05:29:25.012Z,20.00
2018-08-06T05:31:52.328Z,20.20
2018-08-06T05:34:19.946Z,19.25
2018-08-06T05:36:47.331Z,15.43
2018-08-06T05:39:14.652Z,14.33
2018-08-06T05:41:41.903Z,17.90
2018-08-06T05:44:09.295Z,17.83
2018-08-06T05:46:37.986Z,17.45
2018-08-06T05:49:05.403Z,14.43
2018-08-06T05:51:32.775Z,14.63
2018-08-06T05:54:00.147Z,13.03
2018-08-06T05:56:27.360Z,14.53
2018-08-06T05:58:54.881Z,17.20
2018-08-06T06:01:22.263Z,14.57
2018-08-06T06:03:49.514Z,16.10
2018-08-06T06:06:16.787Z,13.80
2018-08-06T06:08:44.121Z,17.00
2018-08-06T06:11:11.369Z,12.53
2018-08-06T06:13:38.628Z,14.28
2018-08-06T06:16:06.759Z,14.18
2018-08-06T06:18:34.069Z,14.40
2018-08-06T06:21:01.405Z,9.50
2018-08-06T06:23:28.800Z,10.43
2018-08-06T06:25:56.118Z,17.00
2018-08-06T06:28:23.408Z,11.20
2018-08-06T06:30:50.689Z,12.00
2018-08-06T06:33:18.009Z,11.20
2018-08-06T06:35:45.326Z,13.10
2018-08-06T06:38:12.586Z,7.90
2018-08-06T06:40:39.832Z,16.33
2018-08-06T06:43:07.081Z,14.70
2018-08-06T06:45:34.346Z,18.57
2018-08-06T06:48:01.658Z,15.40
2018-08-06T06:50:28.934Z,21.20
2018-08-06T06:52:56.412Z,16.93
2018-08-06T06:55:23.665Z,14.60
2018-08-06T06:57:50.938Z,20.60
2018-08-06T07:00:18.256Z,15.85
2018-08-06T07:02:45.458Z,14.47
2018-08-06T07:29:41.523Z,8.73
2018-08-06T07:32:08.804Z,11.23
2018-08-06T07:34:36.159Z,15.47
2018-08-06T07:37:03.427Z,9.63
2018-08-06T07:39:30.727Z,12.88
2018-08-06T07:41:57.988Z,12.23
2018-08-06T07:44:25.343Z,10.30
2018-08-06T07:46:52.651Z,11.53
2018-08-06T07:49:20.026Z,10.97
2018-08-06T07:51:47.293Z,6.83
2018-08-06T07:54:14.520Z,10.73
2018-08-06T07:56:41.747Z,12.53
2018-08-06T07:59:09.018Z,12.37
2018-08-06T08:01:36.267Z,12.00
2018-08-06T08:04:03.671Z,8.40
2018-08-06T08:06:31.070Z,8.10
2018-08-06T08:08:58.242Z,10.87
2018-08-06T08:11:25.512Z,8.97
2018-08-06T08:13:52.741Z,8.73
2018-08-06T08:16:19.993Z,4.97
2018-08-06T08:18:47.269Z,6.83
2018-08-06T08:21:14.523Z,6.13
2018-08-06T08:23:41.836Z,7.80
2018-08-06T08:26:09.169Z,8.60
2018-08-06T08:28:36.418Z,16.30
2018-08-06T08:31:03.688Z,10.07
2018-08-06T08:33:30.947Z,12.03
2018-08-06T08:55:32.478Z,5.23
2018-08-06T08:57:59.758Z,12.80
2018-08-06T09:00:26.991Z,7.57
2018-08-06T09:02:54.275Z,11.60
2018-08-06T09:05:21.623Z,5.60
2018-08-06T09:07:49.528Z,16.90
2018-08-06T09:10:17.507Z,9.57
2018-08-06T09:12:45.059Z,7.60
2018-08-06T09:15:20.807Z,5.63
2018-08-06T09:17:48.084Z,14.57
2018-08-06T09:20:15.319Z,7.15
2018-08-06T09:22:43.229Z,7.28
2018-08-06T09:25:11.360Z,6.50
2018-08-06T09:27:39.725Z,11.07
2018-08-06T09:30:11.157Z,7.40
2018-08-06T09:32:38.427Z,9.80
2018-08-06T09:35:05.724Z,5.57
2018-08-06T09:37:33.043Z,5.27
2018-08-06T09:40:00.307Z,8.50
2018-08-06T09:42:27.588Z,7.47
2018-08-06T09:44:55.004Z,8.80
2018-08-06T09:47:22.403Z,7.10
2018-08-06T09:49:49.621Z,10.63
2018-08-06T09:52:17.162Z,7.80
2018-08-06T09:54:44.496Z,7.78
2018-08-06T09:57:11.850Z,5.58
2018-08-06T09:59:39.105Z,6.63
2018-08-06T10:02:06.470Z,8.07
2018-08-06T10:04:33.702Z,9.00
2018-08-06T10:07:01.045Z,4.90
2018-08-06T10:09:28.287Z,6.67
2018-08-06T10:11:55.592Z,5.60
2018-08-06T10:14:22.998Z,7.50
2018-08-06T10:16:50.256Z,5.13
2018-08-06T10:19:17.614Z,9.47
2018-08-06T10:21:44.847Z,5.13
2018-08-06T10:24:12.213Z,4.30
2018-08-06T10:26:39.461Z,6.60
2018-08-06T10:29:06.746Z,6.37
2018-08-06T10:31:33.948Z,6.30
2018-08-06T10:41:21.690Z,7.30
2018-08-06T10:43:49.007Z,6.22
2018-08-06T10:46:16.346Z,6.27
2018-08-06T10:48:44.611Z,5.30
2018-08-06T10:51:12.095Z,9.10
2018-08-06T10:53:39.326Z,12.23
2018-08-06T10:56:06.648Z,4.20
2018-08-06T11:01:00.813Z,5.03
2018-08-06T11:03:28.107Z,4.63
2018-08-06T11:05:55.420Z,6.70
2018-08-06T11:08:22.716Z,6.73
2018-08-06T11:10:49.919Z,5.93
2018-08-06T11:13:17.584Z,5.27
2018-08-06T11:15:44.786Z,7.43
2018-08-06T11:20:38.819Z,6.95
2018-08-06T11:23:06.096Z,7.00
2018-08-06T11:28:00.109Z,4.85
2018-08-06T11:30:27.424Z,6.00
2018-08-06T11:32:54.906Z,3.10
2018-08-06T11:35:22.155Z,5.00
2018-08-06T11:37:49.505Z,4.13
2018-08-06T11:40:17.409Z,4.25
2018-08-06T11:42:45.382Z,4.63
2018-08-06T11:45:14.854Z,4.12
2018-08-06T11:47:42.199Z,4.17
2018-08-06T11:50:10.069Z,2.98
2018-08-06T11:52:37.538Z,2.77
2018-08-06T11:55:05.391Z,3.33
2018-08-06T11:57:32.691Z,3.45
2018-08-06T12:07:20.481Z,3.60
2018-08-06T12:09:47.734Z,3.35
2018-08-06T12:12:14.995Z,6.40
2018-08-06T12:14:42.295Z,3.50
2018-08-06T12:17:09.560Z,3.83
2018-08-06T12:19:36.915Z,2.15
2018-08-06T12:22:04.167Z,2.27
2018-08-06T12:24:31.396Z,2.50
2018-08-06T12:26:58.704Z,2.15
2018-08-06T12:29:26.412Z,3.05
2018-08-06T12:44:11.004Z,6.10
2018-08-06T12:46:38.589Z,3.20
2018-08-06T13:01:20.387Z,2.60
2018-08-06T13:03:47.946Z,1.80
2018-08-06T13:08:42.199Z,4.80
2018-08-06T13:11:09.397Z,1.90
2018-08-06T13:13:36.619Z,3.08
2018-08-06T13:16:04.313Z,2.10
2018-08-06T13:18:31.683Z,4.30
2018-08-06T13:20:58.967Z,2.43
2018-08-06T13:23:26.272Z,2.00
2018-08-06T13:25:53.576Z,2.67
2018-08-06T13:28:20.911Z,3.30
2018-08-06T13:30:48.196Z,2.12
2018-08-06T13:33:15.391Z,2.85
2018-08-06T13:35:42.705Z,2.05
2018-08-06T13:38:09.975Z,3.20
2018-08-06T13:40:37.279Z,2.37
2018-08-06T13:43:04.864Z,2.10
2018-08-06T13:45:32.100Z,3.10
2018-08-06T13:47:59.402Z,3.40
2018-08-06T13:50:26.642Z,2.70
2018-08-06T13:52:53.953Z,2.50
2018-08-06T13:55:21.172Z,1.55
2018-08-06T13:57:48.463Z,2.90
2018-08-06T14:00:17.445Z,4.83
2018-08-06T14:02:44.781Z,3.50
2018-08-06T14:05:13.400Z,1.35
2018-08-06T14:07:41.044Z,1.22
2018-08-06T14:10:09.213Z,3.67
2018-08-06T14:12:37.187Z,2.17
2018-08-06T14:15:05.311Z,2.30
2018-08-06T14:17:32.560Z,3.47
2018-08-06T14:19:59.805Z,1.52
2018-08-06T14:22:27.312Z,3.50
2018-08-06T14:24:54.563Z,1.50
2018-08-06T14:27:21.832Z,2.52
2018-08-06T14:29:49.193Z,1.50
2018-08-06T14:32:16.587Z,1.22
2018-08-06T14:34:44.081Z,1.52
2018-08-06T14:37:11.399Z,3.37
2018-08-06T14:39:38.711Z,1.50
2018-08-06T14:42:06.484Z,2.30
2018-08-06T14:44:33.893Z,1.77
2018-08-06T14:47:01.234Z,1.30
2018-08-06T14:49:28.567Z,1.20
2018-08-06T14:51:55.908Z,2.87
2018-08-06T14:54:23.232Z,2.15
2018-08-06T14:59:17.509Z,2.95
2018-08-06T15:01:44.821Z,1.63
2018-08-06T15:04:12.081Z,1.20
2018-08-06T15:06:39.323Z,1.20
2018-08-06T15:09:07.863Z,1.05
2018-08-06T15:11:35.084Z,1.17
2018-08-06T15:14:02.727Z,1.20
2018-08-06T15:16:30.141Z,3.77
2018-08-06T15:18:57.515Z,1.57
2018-08-06T15:21:24.875Z,1.50
2018-08-06T15:23:52.255Z,2.70
2018-08-06T15:26:19.575Z,1.57
2018-08-06T15:28:46.841Z,1.95
2018-08-06T15:31:14.658Z,1.40
2018-08-06T15:33:41.943Z,1.65
2018-08-06T15:36:09.290Z,3.20
2018-08-06T15:38:36.592Z,1.50
2018-08-06T15:41:04.317Z,1.50
2018-08-06T15:43:31.755Z,1.50
2018-08-06T15:45:59.137Z,1.30
2018-08-06T15:48:26.378Z,2.60
2018-08-06T16:08:01.759Z,3.80
2018-08-06T16:12:56.040Z,1.50
2018-08-06T16:15:23.463Z,3.90
2018-08-06T16:17:51.807Z,1.60
2018-08-06T16:20:19.088Z,2.85
2018-08-06T16:22:46.475Z,2.70
2018-08-06T16:25:14.093Z,2.10
2018-08-06T16:27:41.399Z,1.80
2018-08-06T16:30:17.439Z,1.70
2018-08-06T16:32:45.962Z,2.83
2018-08-06T16:35:13.688Z,2.60
2018-08-06T16:37:40.933Z,2.47
2018-08-06T16:40:09.108Z,1.80
2018-08-06T16:42:36.381Z,2.20
2018-08-06T16:45:04.452Z,1.45
2018-08-06T16:47:31.829Z,2.40
2018-08-06T16:49:59.177Z,2.80
2018-08-06T16:52:26.519Z,1.60
2018-08-06T16:54:54.150Z,1.77
2018-08-06T16:57:21.416Z,4.25
2018-08-06T16:59:49.331Z,8.03
2018-08-06T17:02:16.620Z,2.22
2018-08-06T17:21:51.610Z,1.50
2018-08-06T17:24:18.925Z,2.42
2018-08-06T17:26:46.217Z,1.90
2018-08-06T17:29:13.475Z,3.40
2018-08-06T17:31:40.694Z,3.05
2018-08-06T17:36:34.811Z,4.30
2018-08-06T17:39:02.171Z,3.67
2018-08-06T17:58:37.154Z,3.43
2018-08-06T18:01:04.527Z,5.10
2018-08-06T18:03:31.883Z,5.43
2018-08-06T19:14:41.650Z,13.50
2018-08-06T19:17:10.074Z,17.27
2018-08-06T19:19:37.348Z,13.98
2018-08-06T19:22:04.676Z,11.70
2018-08-06T19:24:37.897Z,16.80
2018-08-06T19:27:05.248Z,8.43
2018-08-06T19:29:32.622Z,10.03
2018-08-06T19:32:00.445Z,10.48
2018-08-06T19:34:27.928Z,10.80
2018-08-06T19:37:04.194Z,9.20
2018-08-06T19:39:31.499Z,22.75
2018-08-06T19:41:58.823Z,32.60
2018-08-06T19:44:26.129Z,47.48
2018-08-06T19:46:53.659Z,35.75
2018-08-06T19:49:26.743Z,18.37
2018-08-06T19:51:54.078Z,13.35
2018-08-06T19:54:21.436Z,10.63
2018-08-06T19:56:48.891Z,10.20
2018-08-06T19:59:16.303Z,9.35
2018-08-06T20:01:48.969Z,7.75
2018-08-06T20:04:16.555Z,8.38
2018-08-06T20:06:43.857Z,11.67
2018-08-06T20:09:13.119Z,10.63
2018-08-06T20:11:40.648Z,6.70
2018-08-06T20:14:09.463Z,12.80
2018-08-06T20:16:36.887Z,25.30
2018-08-06T20:19:06.497Z,11.20
2018-08-06T20:21:33.886Z,9.00
2018-08-06T20:24:01.345Z,10.10
2018-08-06T20:26:28.597Z,10.20
2018-08-06T20:28:55.939Z,8.33
2018-08-06T20:31:23.415Z,23.23
2018-08-06T20:33:50.882Z,12.27
2018-08-06T20:36:18.252Z,9.87
2018-08-06T20:38:45.541Z,11.67
2018-08-06T20:41:19.946Z,10.28
2018-08-06T20:43:47.402Z,9.65
2018-08-06T20:46:14.968Z,12.27
2018-08-06T20:48:42.278Z,15.08
2018-08-06T20:51:09.572Z,10.40
2018-08-06T20:53:36.849Z,15.03
2018-08-06T20:56:04.193Z,9.93
2018-08-06T20:58:31.551Z,12.65
2018-08-06T21:00:58.916Z,11.40
2018-08-06T21:03:26.179Z,11.80
2018-08-06T21:05:54.203Z,11.23
2018-08-06T21:08:21.773Z,14.10
2018-08-06T21:10:50.151Z,12.10
2018-08-06T21:13:19.338Z,18.03
2018-08-06T21:18:13.339Z,11.40
2018-08-06T21:20:40.588Z,12.63
2018-08-06T21:23:07.874Z,15.03
2018-08-06T21:25:35.541Z,15.40
2018-08-06T21:28:02.970Z,9.83
2018-08-06T21:30:30.288Z,18.60
2018-08-06T21:32:57.491Z,14.37
2018-08-06T21:35:26.083Z,17.47
2018-08-06T21:37:53.990Z,12.87
2018-08-06T21:40:22.065Z,9.40
2018-08-06T21:42:49.918Z,20.20
2018-08-06T21:45:17.491Z,8.47
2018-08-06T21:47:44.755Z,8.40
2018-08-06T21:50:12.613Z,11.53
2018-08-06T21:52:39.911Z,11.73
2018-08-06T21:55:07.735Z,9.27
2018-08-06T22:41:15.407Z,7.53
2018-08-06T22:43:42.860Z,8.53
2018-08-06T22:46:10.085Z,6.70
2018-08-06T22:48:37.319Z,7.62
2018-08-06T22:51:04.583Z,7.35
2018-08-06T22:53:31.900Z,5.43
2018-08-06T22:56:03.016Z,5.03
2018-08-06T22:58:30.301Z,6.35
2018-08-06T23:00:57.673Z,7.10
2018-08-06T23:03:24.979Z,9.80
2018-08-06T23:05:52.381Z,6.70
2018-08-06T23:08:19.867Z,6.22
2018-08-06T23:10:47.148Z,6.40
2018-08-06T23:13:14.681Z,9.93
2018-08-06T23:15:41.980Z,5.90
2018-08-06T23:18:09.236Z,8.00
2018-08-06T23:20:36.543Z,7.37
2018-08-06T23:23:03.839Z,4.80
2018-08-06T23:25:31.069Z,4.85
2018-08-06T23:27:58.353Z,8.98
2018-08-06T23:30:25.603Z,11.60
2018-08-06T23:32:52.892Z,10.60
2018-08-06T23:35:20.243Z,7.33
2018-08-06T23:37:47.460Z,8.43
2018-08-06T23:40:15.009Z,6.15
2018-08-06T23:42:42.690Z,6.20
2018-08-06T23:45:11.768Z,6.97
2018-08-06T23:47:39.477Z,5.50
2018-08-06T23:50:08.165Z,9.58
2018-08-06T23:52:35.447Z,8.75
2018-08-06T23:55:02.711Z,7.80
2018-08-06T23:57:30.036Z,5.95
2018-08-06T23:59:57.278Z,5.65
